createdAt,value
2023-05-06T00:01:18.053Z,22.40
2023-05-06T00:03:44.987Z,22.40
2023-05-06T00:06:12.019Z,22.40
2023-05-06T00:08:38.831Z,22.40
2023-05-06T00:11:05.647Z,22.40
2023-05-06T00:13:32.407Z,22.40
2023-05-06T00:15:59.217Z,22.40
2023-05-06T00:18:26.123Z,22.30
2023-05-06T00:20:52.966Z,22.30
2023-05-06T00:23:19.799Z,22.30
2023-05-06T00:25:46.876Z,22.30
2023-05-06T00:28:13.714Z,22.30
2023-05-06T00:30:40.517Z,22.30
2023-05-06T00:33:08.033Z,22.20
2023-05-06T00:35:34.857Z,22.20
2023-05-06T00:38:10.689Z,22.20
2023-05-06T00:40:37.818Z,22.20
2023-05-06T00:43:05.052Z,22.20
2023-05-06T00:45:32.068Z,22.10
2023-05-06T00:48:00.208Z,22.10
2023-05-06T00:50:28.569Z,22.10
2023-05-06T00:52:58.287Z,22.00
2023-05-06T00:55:26.156Z,22.00
2023-05-06T00:57:54.063Z,22.00
2023-05-06T01:00:21.758Z,22.00
2023-05-06T01:02:48.930Z,22.00
2023-05-06T01:05:22.335Z,22.00
2023-05-06T01:08:15.678Z,22.00
2023-05-06T01:10:53.358Z,21.90
2023-05-06T01:13:48.721Z,21.90
2023-05-06T01:16:19.909Z,21.80
2023-05-06T01:18:50.261Z,21.80
2023-05-06T01:21:18.904Z,21.80
2023-05-06T01:23:52.747Z,21.70
2023-05-06T01:26:20.046Z,21.70
2023-05-06T01:28:46.968Z,21.70
2023-05-06T01:31:25.570Z,21.70
2023-05-06T01:33:52.400Z,21.60
2023-05-06T01:36:29.076Z,21.60
2023-05-06T01:39:09.628Z,21.60
2023-05-06T01:41:40.808Z,21.50
2023-05-06T01:44:11.713Z,21.50
2023-05-06T01:46:38.583Z,21.50
2023-05-06T01:49:10.520Z,21.50
2023-05-06T01:51:38.003Z,21.40
2023-05-06T01:54:05.077Z,21.40
2023-05-06T01:56:32.066Z,21.30
2023-05-06T01:58:59.853Z,21.30
2023-05-06T02:01:27.082Z,21.30
2023-05-06T02:03:54.120Z,21.30
2023-05-06T02:06:21.064Z,21.20
2023-05-06T02:08:48.771Z,21.20
2023-05-06T02:11:19.453Z,21.20
2023-05-06T02:13:48.651Z,21.10
2023-05-06T02:16:15.562Z,21.10
2023-05-06T02:18:42.478Z,21.10
2023-05-06T02:21:10.398Z,21.00
2023-05-06T02:23:37.360Z,20.90
2023-05-06T02:26:04.654Z,20.90
2023-05-06T02:28:33.205Z,20.90
2023-05-06T02:31:00.025Z,20.80
2023-05-06T02:33:26.894Z,20.80
2023-05-06T02:35:53.737Z,20.70
2023-05-06T02:38:21.959Z,20.70
2023-05-06T02:40:48.744Z,20.70
2023-05-06T02:43:15.637Z,20.60
2023-05-06T02:45:42.552Z,20.60
2023-05-06T02:48:09.361Z,20.50
2023-05-06T02:50:37.006Z,20.50
2023-05-06T02:53:03.854Z,20.50
2023-05-06T02:55:30.793Z,20.50
2023-05-06T02:57:57.583Z,20.50
2023-05-06T03:00:24.372Z,20.50
2023-05-06T03:02:51.266Z,20.40
2023-05-06T03:05:18.248Z,20.30
2023-05-06T03:07:45.092Z,20.30
2023-05-06T03:10:11.977Z,20.30
2023-05-06T03:12:39.016Z,20.20
2023-05-06T03:15:06.588Z,20.20
2023-05-06T03:17:33.433Z,20.10
2023-05-06T03:20:02.408Z,20.10
2023-05-06T03:22:30.678Z,20.10
2023-05-06T03:24:57.979Z,20.00
2023-05-06T03:27:27.275Z,20.00
2023-05-06T03:29:58.922Z,19.90
2023-05-06T03:32:25.857Z,19.90
2023-05-06T03:34:53.134Z,19.80
2023-05-06T03:37:21.922Z,19.80
2023-05-06T03:39:53.102Z,19.70
2023-05-06T03:42:22.733Z,19.70
2023-05-06T03:44:49.802Z,19.70
2023-05-06T03:47:17.727Z,19.60
2023-05-06T03:49:45.301Z,19.60
2023-05-06T03:52:12.652Z,19.60
2023-05-06T03:54:39.652Z,19.60
2023-05-06T03:57:07.605Z,19.50
2023-05-06T03:59:34.770Z,19.50
2023-05-06T04:02:03.384Z,19.50
2023-05-06T04:04:31.794Z,19.50
2023-05-06T04:06:58.645Z,19.50
2023-05-06T04:09:25.482Z,19.40
2023-05-06T04:11:53.297Z,19.40
2023-05-06T04:14:21.196Z,19.40
2023-05-06T04:16:48.759Z,19.40
2023-05-06T04:19:17.866Z,19.40
2023-05-06T04:21:45.827Z,19.30
2023-05-06T04:24:13.788Z,19.30
2023-05-06T04:26:41.260Z,19.30
2023-05-06T04:29:09.296Z,19.30
2023-05-06T04:31:43.492Z,19.30
2023-05-06T04:34:12.650Z,19.30
2023-05-06T04:36:40.708Z,19.20
2023-05-06T04:39:40.178Z,19.20
2023-05-06T04:42:07.915Z,19.20
2023-05-06T04:44:43.634Z,19.20
2023-05-06T04:47:12.180Z,19.10
2023-05-06T04:49:42.078Z,19.10
2023-05-06T04:52:09.364Z,19.10
2023-05-06T04:54:36.684Z,19.10
2023-05-06T04:57:04.724Z,19.10
2023-05-06T04:59:32.878Z,19.10
2023-05-06T05:02:01.765Z,19.10
2023-05-06T05:04:28.615Z,19.10
2023-05-06T05:06:55.786Z,19.10
2023-05-06T05:09:22.794Z,19.10
2023-05-06T05:11:50.576Z,19.10
2023-05-06T05:14:17.501Z,19.10
2023-05-06T05:16:44.729Z,19.10
2023-05-06T05:19:11.754Z,19.10
2023-05-06T05:21:39.564Z,19.20
2023-05-06T05:24:08.407Z,19.20
2023-05-06T05:26:35.989Z,19.20
2023-05-06T05:29:02.913Z,19.20
2023-05-06T05:31:31.705Z,19.30
2023-05-06T05:34:00.218Z,19.30
2023-05-06T05:36:27.951Z,19.30
2023-05-06T05:38:57.277Z,19.30
2023-05-06T05:41:26.826Z,19.30
2023-05-06T05:43:54.973Z,19.40
2023-05-06T05:46:22.211Z,19.40
2023-05-06T05:48:50.659Z,19.40
2023-05-06T05:51:20.725Z,19.40
2023-05-06T05:53:47.697Z,19.40
2023-05-06T05:56:15.375Z,19.50
2023-05-06T05:58:42.435Z,19.50
2023-05-06T06:01:09.501Z,19.60
2023-05-06T06:03:36.710Z,19.60
2023-05-06T06:06:05.528Z,19.60
2023-05-06T06:08:33.195Z,19.60
2023-05-06T06:11:01.979Z,19.70
2023-05-06T06:13:35.008Z,19.70
2023-05-06T06:16:01.994Z,19.70
2023-05-06T06:18:29.157Z,19.80
2023-05-06T06:20:56.118Z,19.80
2023-05-06T06:23:24.440Z,19.90
2023-05-06T06:25:51.308Z,19.90
2023-05-06T06:28:18.103Z,19.90
2023-05-06T06:30:45.622Z,20.00
2023-05-06T06:33:12.669Z,20.00
2023-05-06T06:35:40.276Z,20.10
2023-05-06T06:38:07.086Z,20.10
2023-05-06T06:40:33.908Z,20.10
2023-05-06T06:43:01.269Z,20.20
2023-05-06T06:45:57.392Z,20.30
2023-05-06T06:48:24.179Z,20.30
2023-05-06T06:50:51.108Z,20.40
2023-05-06T06:53:18.079Z,20.40
2023-05-06T06:55:45.863Z,20.50
2023-05-06T06:58:12.916Z,20.50
2023-05-06T07:00:39.692Z,20.60
2023-05-06T07:03:06.673Z,20.70
2023-05-06T07:05:33.688Z,20.70
2023-05-06T07:08:00.463Z,20.90
2023-05-06T07:10:27.392Z,20.90
2023-05-06T07:12:54.525Z,21.00
2023-05-06T07:15:21.817Z,21.10
2023-05-06T07:17:48.662Z,21.20
2023-05-06T07:20:16.257Z,21.30
2023-05-06T07:22:43.709Z,21.40
2023-05-06T07:25:10.976Z,21.50
2023-05-06T07:27:38.093Z,21.60
2023-05-06T07:30:05.433Z,21.70
2023-05-06T07:32:32.323Z,21.80
2023-05-06T07:34:59.157Z,21.90
2023-05-06T07:37:25.942Z,22.00
2023-05-06T07:39:52.800Z,22.00
2023-05-06T07:42:19.615Z,22.10
2023-05-06T07:44:46.374Z,22.20
2023-05-06T07:47:25.723Z,22.30
2023-05-06T07:49:52.628Z,22.40
2023-05-06T07:52:19.573Z,22.50
2023-05-06T07:54:46.333Z,22.60
2023-05-06T07:57:13.476Z,22.70
2023-05-06T07:59:40.264Z,22.70
2023-05-06T08:02:07.113Z,22.80
2023-05-06T08:04:33.961Z,22.90
2023-05-06T08:07:00.772Z,23.00
2023-05-06T08:09:27.550Z,23.10
2023-05-06T08:11:54.387Z,23.20
2023-05-06T08:14:21.342Z,23.20
2023-05-06T08:16:49.148Z,23.30
2023-05-06T08:19:16.065Z,23.40
2023-05-06T08:21:42.901Z,23.50
2023-05-06T08:24:10.968Z,23.60
2023-05-06T08:26:37.749Z,23.60
2023-05-06T08:29:04.535Z,23.70
2023-05-06T08:31:31.510Z,23.80
2023-05-06T08:33:58.305Z,23.90
2023-05-06T08:36:25.399Z,24.00
2023-05-06T08:38:52.182Z,24.00
2023-05-06T08:41:21.370Z,24.10
2023-05-06T08:43:49.854Z,24.20
2023-05-06T08:46:17.905Z,24.30
2023-05-06T08:48:45.754Z,24.40
2023-05-06T08:51:15.346Z,24.50
2023-05-06T08:53:48.574Z,24.70
2023-05-06T08:56:16.449Z,24.80
2023-05-06T08:58:48.543Z,24.90
2023-05-06T09:01:16.108Z,25.00
2023-05-06T09:03:44.220Z,25.10
2023-05-06T09:06:11.267Z,25.20
2023-05-06T09:08:38.094Z,25.30
2023-05-06T09:11:21.164Z,25.40
2023-05-06T09:13:48.085Z,25.60
2023-05-06T09:16:30.887Z,25.70
2023-05-06T09:18:58.739Z,25.90
2023-05-06T09:21:34.803Z,26.00
2023-05-06T09:24:02.603Z,26.20
2023-05-06T09:26:30.937Z,26.30
2023-05-06T09:28:58.922Z,26.40
2023-05-06T09:31:26.953Z,26.50
2023-05-06T09:33:55.647Z,26.60
2023-05-06T09:36:23.671Z,26.70
2023-05-06T09:38:51.047Z,26.90
2023-05-06T09:41:20.985Z,27.00
2023-05-06T09:43:49.268Z,27.10
2023-05-06T09:46:17.259Z,27.10
2023-05-06T09:48:46.026Z,27.20
2023-05-06T09:51:13.352Z,27.20
2023-05-06T09:53:40.659Z,27.40
2023-05-06T09:56:08.378Z,27.40
2023-05-06T09:58:35.877Z,27.50
2023-05-06T10:01:05.007Z,27.60
2023-05-06T10:03:33.183Z,27.60
2023-05-06T10:06:06.149Z,27.60
2023-05-06T10:08:35.085Z,27.70
2023-05-06T10:11:02.197Z,27.70
2023-05-06T10:13:30.085Z,27.90
2023-05-06T10:15:57.526Z,28.00
2023-05-06T10:18:31.221Z,28.10
2023-05-06T10:20:59.526Z,28.20
2023-05-06T10:23:35.377Z,28.40
2023-05-06T10:26:07.869Z,28.50
2023-05-06T10:28:42.572Z,28.60
2023-05-06T10:31:13.703Z,28.60
2023-05-06T10:33:43.265Z,28.70
2023-05-06T10:36:14.497Z,28.70
2023-05-06T10:38:43.912Z,28.70
2023-05-06T10:41:11.726Z,28.80
2023-05-06T10:43:43.307Z,28.80
2023-05-06T10:46:12.353Z,28.90
2023-05-06T10:48:59.927Z,29.00
2023-05-06T10:51:28.529Z,29.10
2023-05-06T10:54:09.335Z,29.20
2023-05-06T10:56:36.052Z,29.10
2023-05-06T10:59:12.973Z,29.20
2023-05-06T11:01:44.358Z,29.20
2023-05-06T11:04:13.962Z,29.30
2023-05-06T11:06:42.177Z,29.30
2023-05-06T11:09:22.115Z,29.30
2023-05-06T11:12:05.860Z,29.30
2023-05-06T11:14:38.587Z,29.30
2023-05-06T11:17:29.406Z,29.20
2023-05-06T11:20:22.455Z,29.20
2023-05-06T11:22:49.607Z,29.20
2023-05-06T11:25:39.120Z,29.20
2023-05-06T11:28:11.487Z,29.20
2023-05-06T11:30:41.900Z,29.20
2023-05-06T11:33:13.680Z,29.10
2023-05-06T11:35:40.464Z,29.00
2023-05-06T11:38:07.340Z,29.00
2023-05-06T11:40:34.147Z,28.80
2023-05-06T11:43:11.170Z,28.70
2023-05-06T11:45:56.155Z,28.60
2023-05-06T11:48:22.922Z,28.50
2023-05-06T11:50:50.638Z,28.50
2023-05-06T11:53:20.120Z,28.30
2023-05-06T11:55:48.141Z,28.20
2023-05-06T11:58:16.701Z,28.10
2023-05-06T12:00:52.823Z,28.10
2023-05-06T12:03:21.175Z,28.00
2023-05-06T12:05:49.234Z,27.90
2023-05-06T12:08:26.525Z,27.70
2023-05-06T12:11:01.194Z,27.70
2023-05-06T12:13:29.155Z,27.60
2023-05-06T12:15:58.318Z,27.60
2023-05-06T12:18:26.031Z,27.50
2023-05-06T12:21:05.981Z,27.50
2023-05-06T12:23:32.973Z,27.40
2023-05-06T12:26:05.433Z,27.40
2023-05-06T12:28:35.109Z,27.40
2023-05-06T12:31:22.210Z,27.40
2023-05-06T12:33:50.092Z,27.30
2023-05-06T12:36:18.001Z,27.30
2023-05-06T12:38:55.587Z,27.30
2023-05-06T12:41:24.780Z,27.30
2023-05-06T12:43:54.675Z,27.20
2023-05-06T12:46:21.712Z,27.20
2023-05-06T12:49:02.100Z,27.20
2023-05-06T12:51:30.767Z,27.20
2023-05-06T12:53:57.654Z,27.20
2023-05-06T12:56:24.629Z,27.20
2023-05-06T12:58:59.789Z,27.20
2023-05-06T13:01:26.890Z,27.10
2023-05-06T13:03:58.465Z,27.20
2023-05-06T13:06:25.428Z,27.20
2023-05-06T13:08:52.294Z,27.20
2023-05-06T13:11:19.200Z,27.20
2023-05-06T13:13:46.205Z,27.20
2023-05-06T13:16:13.159Z,27.20
2023-05-06T13:18:40.028Z,27.10
2023-05-06T13:21:06.921Z,27.10
2023-05-06T13:23:35.188Z,27.10
2023-05-06T13:26:05.786Z,27.00
2023-05-06T13:28:33.978Z,27.00
2023-05-06T13:31:00.979Z,27.00
2023-05-06T13:33:27.833Z,26.90
2023-05-06T13:35:54.701Z,26.90
2023-05-06T13:38:22.034Z,26.90
2023-05-06T13:40:53.104Z,26.90
2023-05-06T13:43:21.300Z,26.90
2023-05-06T13:45:48.109Z,26.90
2023-05-06T13:48:15.234Z,26.90
2023-05-06T13:50:42.909Z,26.80
2023-05-06T13:53:10.649Z,26.90
2023-05-06T13:55:38.061Z,26.90
2023-05-06T13:58:06.161Z,26.90
2023-05-06T14:00:33.991Z,26.90
2023-05-06T14:03:00.881Z,26.90
2023-05-06T14:05:27.944Z,26.90
2023-05-06T14:07:54.792Z,26.90
2023-05-06T14:10:21.659Z,26.90
2023-05-06T14:12:48.508Z,26.90
2023-05-06T14:15:15.620Z,26.90
2023-05-06T14:17:43.269Z,27.00
2023-05-06T14:20:10.714Z,26.90
2023-05-06T14:22:40.630Z,27.00
2023-05-06T14:25:08.582Z,27.00
2023-05-06T14:27:36.088Z,27.00
2023-05-06T14:30:08.156Z,27.00
2023-05-06T14:32:35.750Z,27.00
2023-05-06T14:35:02.650Z,27.00
2023-05-06T14:37:29.768Z,27.10
2023-05-06T14:39:57.699Z,27.10
2023-05-06T14:42:24.595Z,27.10
2023-05-06T14:44:51.424Z,27.10
2023-05-06T14:47:18.318Z,27.10
2023-05-06T14:49:45.152Z,27.10
2023-05-06T14:52:11.956Z,27.10
2023-05-06T14:54:42.472Z,27.10
2023-05-06T14:57:09.966Z,27.10
2023-05-06T14:59:37.291Z,27.00
2023-05-06T15:02:09.017Z,27.10
2023-05-06T15:04:36.890Z,27.10
2023-05-06T15:07:04.518Z,27.10
2023-05-06T15:09:31.463Z,27.10
2023-05-06T15:11:58.424Z,27.10
2023-05-06T15:14:25.443Z,27.10
2023-05-06T15:16:56.928Z,27.10
2023-05-06T15:19:24.292Z,27.10
2023-05-06T15:21:51.210Z,27.10
2023-05-06T15:24:18.035Z,27.10
2023-05-06T15:26:45.000Z,27.10
2023-05-06T15:29:12.015Z,27.10
2023-05-06T15:31:40.738Z,27.10
2023-05-06T15:34:09.066Z,27.10
2023-05-06T15:36:35.925Z,27.10
2023-05-06T15:39:03.297Z,27.10
2023-05-06T15:41:35.449Z,27.10
2023-05-06T15:44:05.887Z,27.10
2023-05-06T15:46:33.305Z,27.10
2023-05-06T15:51:30.896Z,27.10
2023-05-06T15:53:57.855Z,27.10
2023-05-06T15:56:26.921Z,27.00
2023-05-06T15:58:55.120Z,27.00
2023-05-06T16:01:31.559Z,27.00
2023-05-06T16:04:09.018Z,27.00
2023-05-06T16:06:35.972Z,27.00
2023-05-06T16:09:02.871Z,27.00
2023-05-06T16:11:29.741Z,27.00
2023-05-06T16:13:56.651Z,27.00
2023-05-06T16:16:23.579Z,27.00
2023-05-06T16:18:50.609Z,27.00
2023-05-06T16:21:17.371Z,27.00
2023-05-06T16:23:44.194Z,27.00
2023-05-06T16:26:11.192Z,26.90
2023-05-06T16:28:39.946Z,26.90
2023-05-06T16:31:07.169Z,26.90
2023-05-06T16:33:34.008Z,26.90
2023-05-06T16:36:00.787Z,27.00
2023-05-06T16:38:27.685Z,27.00
2023-05-06T16:40:54.590Z,27.00
2023-05-06T16:43:21.529Z,27.00
2023-05-06T16:45:48.479Z,26.90
2023-05-06T16:48:16.010Z,26.90
2023-05-06T16:50:42.882Z,26.90
2023-05-06T16:53:10.278Z,26.90
2023-05-06T16:55:37.177Z,26.90
2023-05-06T16:58:04.388Z,26.90
2023-05-06T17:00:32.020Z,26.80
2023-05-06T17:02:59.099Z,26.80
2023-05-06T17:05:26.326Z,26.80
2023-05-06T17:07:53.131Z,26.70
2023-05-06T17:10:20.834Z,26.70
2023-05-06T17:12:48.015Z,26.60
2023-05-06T17:15:14.857Z,26.60
2023-05-06T17:17:41.825Z,26.50
2023-05-06T17:20:09.314Z,26.50
2023-05-06T17:22:36.383Z,26.50
2023-05-06T17:25:04.361Z,26.50
2023-05-06T17:27:31.325Z,26.40
2023-05-06T17:30:00.537Z,26.40
2023-05-06T17:32:27.486Z,26.40
2023-05-06T17:34:54.448Z,26.40
2023-05-06T17:37:21.262Z,26.40
2023-05-06T17:39:48.103Z,26.30
2023-05-06T17:42:14.880Z,26.30
2023-05-06T17:44:42.849Z,26.30
2023-05-06T17:47:10.427Z,26.30
2023-05-06T17:49:37.261Z,26.20
2023-05-06T17:52:04.203Z,26.20
2023-05-06T17:54:34.844Z,26.20
2023-05-06T17:57:03.314Z,26.20
2023-05-06T17:59:30.165Z,26.20
2023-05-06T18:01:57.293Z,26.20
2023-05-06T18:04:24.310Z,26.20
2023-05-06T18:06:51.110Z,26.20
2023-05-06T18:09:17.969Z,26.20
2023-05-06T18:11:45.003Z,26.20
2023-05-06T18:14:12.339Z,26.20
2023-05-06T18:16:39.401Z,26.20
2023-05-06T18:19:06.375Z,26.10
2023-05-06T18:21:35.081Z,26.10
2023-05-06T18:24:10.706Z,26.10
2023-05-06T18:26:45.373Z,26.10
2023-05-06T18:29:12.965Z,26.10
2023-05-06T18:31:39.905Z,26.10
2023-05-06T18:34:06.756Z,26.10
2023-05-06T18:36:35.273Z,26.00
2023-05-06T18:39:05.960Z,26.00
2023-05-06T18:41:32.966Z,26.00
2023-05-06T18:43:59.789Z,26.00
2023-05-06T18:46:27.598Z,26.00
2023-05-06T18:48:55.992Z,25.90
2023-05-06T18:51:22.903Z,25.90
2023-05-06T18:53:49.808Z,25.90
2023-05-06T18:56:17.088Z,25.80
2023-05-06T18:58:44.113Z,25.80
2023-05-06T19:01:11.596Z,25.80
2023-05-06T19:03:38.842Z,25.80
2023-05-06T19:06:10.678Z,25.70
2023-05-06T19:08:37.840Z,25.70
2023-05-06T19:11:04.907Z,25.70
2023-05-06T19:13:31.937Z,25.60
2023-05-06T19:15:58.877Z,25.60
2023-05-06T19:18:25.688Z,25.50
2023-05-06T19:20:53.474Z,25.50
2023-05-06T19:23:21.633Z,25.50
2023-05-06T19:25:48.726Z,25.40
2023-05-06T19:28:15.523Z,25.40
2023-05-06T19:30:42.480Z,25.40
2023-05-06T19:33:09.865Z,25.40
2023-05-06T19:35:41.066Z,25.30
2023-05-06T19:38:09.164Z,25.30
2023-05-06T19:40:36.121Z,25.20
2023-05-06T19:43:05.820Z,25.20
2023-05-06T19:45:33.799Z,25.20
2023-05-06T19:48:01.711Z,25.10
2023-05-06T19:50:28.640Z,25.10
2023-05-06T19:52:55.563Z,25.10
2023-05-06T19:55:22.741Z,25.00
2023-05-06T19:57:50.632Z,25.00
2023-05-06T20:00:20.103Z,25.00
2023-05-06T20:02:47.022Z,24.90
2023-05-06T20:05:14.163Z,24.90
2023-05-06T20:07:41.388Z,24.90
2023-05-06T20:10:09.981Z,24.80
2023-05-06T20:12:36.847Z,24.70
2023-05-06T20:15:04.128Z,24.70
2023-05-06T20:17:31.155Z,24.60
2023-05-06T20:19:58.606Z,24.60
2023-05-06T20:22:26.145Z,24.50
2023-05-06T20:24:53.249Z,24.50
2023-05-06T20:27:23.211Z,24.40
2023-05-06T20:29:51.636Z,24.30
2023-05-06T20:32:18.492Z,24.30
2023-05-06T20:34:45.351Z,24.20
2023-05-06T20:37:12.180Z,24.20
2023-05-06T20:39:39.005Z,24.20
2023-05-06T20:42:05.914Z,24.10
2023-05-06T20:44:32.818Z,24.10
2023-05-06T20:46:59.585Z,24.00
2023-05-06T20:49:26.362Z,24.00
2023-05-06T20:51:53.350Z,24.00
2023-05-06T20:54:20.126Z,23.90
2023-05-06T20:56:46.971Z,23.90
2023-05-06T20:59:13.804Z,23.90
2023-05-06T21:01:41.309Z,23.90
2023-05-06T21:04:08.187Z,23.80
2023-05-06T21:06:34.977Z,23.90
2023-05-06T21:09:01.760Z,23.80
2023-05-06T21:11:28.964Z,23.80
2023-05-06T21:13:56.118Z,23.70
2023-05-06T21:16:23.007Z,23.70
2023-05-06T21:18:49.851Z,23.60
2023-05-06T21:21:17.002Z,23.60
2023-05-06T21:23:43.824Z,23.50
2023-05-06T21:26:12.560Z,23.50
2023-05-06T21:28:39.323Z,23.40
2023-05-06T21:31:06.099Z,23.40
2023-05-06T21:33:32.902Z,23.40
2023-05-06T21:36:00.010Z,23.40
2023-05-06T21:38:27.848Z,23.30
2023-05-06T21:40:55.745Z,23.30
2023-05-06T21:43:22.629Z,23.30
2023-05-06T21:45:49.542Z,23.30
2023-05-06T21:48:16.729Z,23.20
2023-05-06T21:50:43.585Z,23.20
2023-05-06T21:53:10.538Z,23.10
2023-05-06T21:55:37.323Z,23.10
2023-05-06T21:58:04.257Z,23.10
2023-05-06T22:00:31.035Z,23.10
2023-05-06T22:02:58.651Z,23.00
2023-05-06T22:05:25.631Z,23.00
2023-05-06T22:07:52.459Z,23.00
2023-05-06T22:10:19.476Z,23.00
2023-05-06T22:12:46.350Z,23.00
2023-05-06T22:15:14.764Z,23.00
2023-05-06T22:17:41.661Z,23.00
2023-05-06T22:20:11.028Z,23.00
2023-05-06T22:22:38.392Z,22.90
2023-05-06T22:25:05.818Z,22.90
2023-05-06T22:27:33.016Z,22.90
2023-05-06T22:29:59.920Z,22.90
2023-05-06T22:32:26.809Z,22.80
2023-05-06T22:34:53.669Z,22.80
2023-05-06T22:37:20.760Z,22.80
2023-05-06T22:39:47.705Z,22.80
2023-05-06T22:42:14.481Z,22.70
2023-05-06T22:44:41.303Z,22.70
2023-05-06T22:47:08.087Z,22.70
2023-05-06T22:49:36.410Z,22.70
2023-05-06T22:52:03.448Z,22.70
2023-05-06T22:54:30.326Z,22.70
2023-05-06T22:56:57.231Z,22.70
2023-05-06T22:59:24.120Z,22.60
2023-05-06T23:01:51.162Z,22.60
2023-05-06T23:04:18.424Z,22.60
2023-05-06T23:06:45.204Z,22.60
2023-05-06T23:09:12.511Z,22.50
2023-05-06T23:11:39.688Z,22.50
2023-05-06T23:14:06.786Z,22.50
2023-05-06T23:16:33.958Z,22.40
2023-05-06T23:19:00.864Z,22.40
2023-05-06T23:21:27.646Z,22.40
2023-05-06T23:23:55.644Z,22.30
2023-05-06T23:26:22.526Z,22.30
2023-05-06T23:28:49.300Z,22.30
2023-05-06T23:31:16.175Z,22.20
2023-05-06T23:33:43.009Z,22.20
2023-05-06T23:36:09.914Z,22.20
2023-05-06T23:38:36.678Z,22.10
2023-05-06T23:41:03.894Z,22.10
2023-05-06T23:43:30.939Z,22.10
2023-05-06T23:45:57.823Z,22.00
2023-05-06T23:48:24.669Z,22.00
2023-05-06T23:50:51.569Z,22.00
2023-05-06T23:53:18.383Z,22.00
2023-05-06T23:55:45.287Z,21.90
2023-05-06T23:58:12.104Z,22.00
